Santana do Piraguara, Brazil
Current Conditions -  °F | °C
As of 8:00 PM on Sunday 21 Dec 2014 (Local Time) from SBBQ Reporting Station
Broken Clouds Broken Clouds  
Wind Chill: 72°   Ceiling: 8000
Heat Index: 72°   Visibility: 6mi
Dew Point: 66°   Wind: 6mph
Humidity: 83%   Direction: 40°NE
Pressure: 30.06"   Gusts: NA
Location:  20.83°S, 43.33°W
Report Text: SBBQ 212200Z 04005KT 9999 SCT035 FEW040TCU BKN080 22/19 Q1018
Loading
Personal Weather Stations






























Interactive Weather Map New forecast layout! Learn more

10-Day Weather Forecast

Advertisements
Track Severe Weather on mobile